Time;durP1;ratioP1;P1;durP2;ratioP2;P2;SDS_P1;SDS_P2;PMS_P1;PMS_P2;Temp;Humidity;BMP_temperature;BMP_pressure;BME280_temperature;BME280_humidity;BME280_pressure;Samples;Min_cycle;Max_cycle;Signal;HPM_P1;HPM_P2
2021/04/02 00:01:43;;;;;;;0.80;0.80;;;14.70;73.70;;;;;;5114079;28;20044;-42
2021/04/02 00:04:09;;;;;;;0.82;0.50;;;14.70;73.70;;;;;;5114263;28;20068;-42
2021/04/02 00:06:34;;;;;;;0.98;0.60;;;14.70;73.70;;;;;;5114380;28;20124;-42
2021/04/02 00:09:00;;;;;;;1.15;0.60;;;14.70;73.70;;;;;;5113712;28;20055;-42
2021/04/02 00:11:26;;;;;;;0.30;0.30;;;14.70;73.70;;;;;;5113796;28;20051;-41
2021/04/02 00:13:52;;;;;;;1.00;0.57;;;14.70;73.70;;;;;;5113262;27;20552;-42
2021/04/02 00:16:19;;;;;;;0.75;0.70;;;14.70;73.70;;;;;;5113421;28;20074;-43
2021/04/02 00:18:52;;;;;;;0.82;0.77;;;14.70;73.80;;;;;;5114029;28;20048;-41
2021/04/02 00:21:18;;;;;;;0.95;0.60;;;14.70;73.80;;;;;;5113359;28;20494;-43
2021/04/02 00:23:45;;;;;;;1.50;0.40;;;14.70;73.80;;;;;;5113900;28;20122;-41
2021/04/02 00:26:19;;;;;;;1.50;0.68;;;14.70;73.80;;;;;;5114049;28;20096;-41
2021/04/02 00:28:47;;;;;;;0.87;0.50;;;14.70;73.80;;;;;;5113491;28;20044;-44
2021/04/02 00:31:13;;;;;;;1.02;0.77;;;14.70;73.80;;;;;;5113793;28;20061;-40
2021/04/02 00:33:39;;;;;;;1.05;0.50;;;14.70;73.80;;;;;;5113021;28;20500;-44
2021/04/02 00:36:06;;;;;;;2.50;0.60;;;14.70;73.90;;;;;;5113690;28;20050;-42
2021/04/02 00:38:32;;;;;;;1.10;0.65;;;14.70;73.80;;;;;;5113514;28;20118;-40
2021/04/02 00:41:06;;;;;;;0.68;0.68;;;14.70;73.80;;;;;;5113482;28;20122;-41
2021/04/02 00:43:37;;;;;;;0.50;0.50;;;14.70;73.80;;;;;;5112990;28;20054;-39
2021/04/02 00:46:03;;;;;;;0.52;0.52;;;14.70;73.90;;;;;;5112902;28;20067;-40
2021/04/02 00:48:30;;;;;;;0.90;0.60;;;14.70;73.80;;;;;;5113135;28;20495;-39
2021/04/02 00:50:59;;;;;;;0.85;0.50;;;14.70;73.90;;;;;;5113267;28;20445;-41
2021/04/02 00:53:33;;;;;;;0.50;0.50;;;14.70;73.90;;;;;;5113465;28;20410;-40
2021/04/02 00:56:00;;;;;;;0.60;0.55;;;14.70;73.90;;;;;;5113108;28;20058;-39
2021/04/02 00:58:32;;;;;;;1.08;0.60;;;14.70;73.90;;;;;;5113065;28;20058;-40
2021/04/02 01:00:58;;;;;;;0.70;0.60;;;14.60;73.80;;;;;;5113300;28;20040;-41
2021/04/02 01:03:24;;;;;;;0.80;0.50;;;14.70;73.80;;;;;;5113372;28;20054;-41
2021/04/02 01:05:51;;;;;;;1.15;0.70;;;14.60;73.80;;;;;;5113117;28;20051;-41
2021/04/02 01:08:20;;;;;;;1.55;0.60;;;14.70;73.90;;;;;;5112720;28;20051;-41
2021/04/02 01:10:47;;;;;;;1.33;0.63;;;14.70;73.90;;;;;;5113047;28;20039;-41
2021/04/02 01:13:17;;;;;;;1.85;0.85;;;14.60;73.80;;;;;;5113043;28;20495;-43
2021/04/02 01:15:56;;;;;;;0.77;0.57;;;14.60;73.80;;;;;;5112597;28;20046;-42
2021/04/02 01:18:50;;;;;;;1.30;0.60;;;14.60;73.80;;;;;;5112765;28;20073;-40
2021/04/02 01:21:45;;;;;;;0.80;0.57;;;14.60;73.80;;;;;;5113207;28;20065;-43
2021/04/02 01:24:21;;;;;;;1.13;0.70;;;14.60;73.90;;;;;;5113002;28;20077;-42
2021/04/02 01:26:56;;;;;;;0.70;0.60;;;14.60;73.90;;;;;;5112681;28;20047;-42
2021/04/02 01:29:43;;;;;;;0.82;0.70;;;14.60;73.90;;;;;;5113052;28;20040;-43
2021/04/02 01:32:12;;;;;;;0.70;0.57;;;14.60;73.90;;;;;;5112709;28;20050;-40
2021/04/02 01:34:43;;;;;;;0.85;0.50;;;14.60;73.90;;;;;;5116166;28;20043;-40
2021/04/02 01:37:13;;;;;;;1.13;0.60;;;14.60;73.90;;;;;;5116936;28;20190;-40
2021/04/02 01:39:44;;;;;;;0.98;0.70;;;14.60;73.90;;;;;;5116993;28;20532;-40
2021/04/02 01:42:16;;;;;;;1.50;0.60;;;14.60;73.90;;;;;;5116841;28;20147;-40
2021/04/02 01:44:42;;;;;;;1.30;0.73;;;14.60;73.90;;;;;;5116863;28;20044;-40
2021/04/02 01:47:09;;;;;;;0.70;0.60;;;14.60;73.90;;;;;;5116171;28;20055;-43
2021/04/02 01:49:37;;;;;;;1.27;0.80;;;14.70;74.00;;;;;;5117014;28;20044;-41
2021/04/02 01:52:06;;;;;;;1.48;0.70;;;14.60;73.90;;;;;;5116846;28;20043;-39
2021/04/02 01:54:33;;;;;;;0.73;0.50;;;14.60;73.90;;;;;;5115810;28;20047;-39
2021/04/02 01:57:00;;;;;;;0.80;0.68;;;14.60;74.00;;;;;;5116868;28;20058;-41
2021/04/02 01:59:27;;;;;;;2.10;0.68;;;14.60;74.00;;;;;;5116794;28;20514;-43
2021/04/02 02:01:54;;;;;;;0.98;0.80;;;14.60;74.00;;;;;;5116990;28;20125;-43
2021/04/02 02:04:22;;;;;;;1.60;0.80;;;14.60;74.00;;;;;;5116595;27;20214;-44
2021/04/02 02:06:50;;;;;;;0.90;0.70;;;14.50;73.90;;;;;;5116590;28;20087;-42
2021/04/02 02:09:21;;;;;;;0.73;0.50;;;14.50;74.00;;;;;;5116399;27;20077;-43
2021/04/02 02:11:52;;;;;;;0.88;0.63;;;14.60;74.00;;;;;;5116459;28;20429;-43
2021/04/02 02:14:19;;;;;;;1.25;0.60;;;14.60;74.00;;;;;;5116504;28;20157;-41
2021/04/02 02:16:52;;;;;;;1.60;0.73;;;14.50;73.90;;;;;;5116407;27;20062;-44
2021/04/02 02:19:23;;;;;;;0.82;0.50;;;14.50;73.90;;;;;;5115765;28;20051;-42
2021/04/02 02:21:50;;;;;;;0.70;0.70;;;14.50;73.90;;;;;;5116527;28;20054;-40
2021/04/02 02:24:17;;;;;;;1.02;0.60;;;14.50;73.90;;;;;;5115842;28;20056;-41
2021/04/02 02:26:44;;;;;;;0.98;0.80;;;14.50;73.90;;;;;;5116069;28;20043;-42
2021/04/02 02:29:11;;;;;;;1.58;0.57;;;14.60;74.00;;;;;;5116353;28;20047;-43
2021/04/02 02:31:37;;;;;;;0.70;0.60;;;14.50;73.90;;;;;;5115996;28;20051;-45
2021/04/02 02:34:05;;;;;;;0.68;0.52;;;14.60;74.00;;;;;;5116053;28;20122;-40
2021/04/02 02:36:32;;;;;;;0.70;0.60;;;14.50;74.00;;;;;;5116134;28;20052;-43
2021/04/02 02:38:58;;;;;;;1.17;0.70;;;14.50;74.00;;;;;;5115791;28;20063;-41
2021/04/02 02:41:28;;;;;;;0.68;0.68;;;14.50;74.00;;;;;;5115375;27;20484;-41
2021/04/02 02:43:55;;;;;;;1.25;0.60;;;14.50;73.90;;;;;;5115669;28;20392;-43
2021/04/02 02:46:21;;;;;;;0.75;0.70;;;14.50;74.00;;;;;;5114303;28;20056;-42
2021/04/02 02:48:51;;;;;;;0.73;0.65;;;14.50;74.00;;;;;;5114656;28;20043;-41
2021/04/02 02:51:18;;;;;;;0.88;0.88;;;14.50;74.00;;;;;;5114108;28;20134;-45
2021/04/02 02:53:45;;;;;;;0.90;0.63;;;14.50;74.00;;;;;;5114490;28;20172;-45
2021/04/02 02:56:12;;;;;;;1.05;0.60;;;14.50;74.00;;;;;;5114630;28;20081;-45
2021/04/02 02:58:39;;;;;;;0.68;0.55;;;14.50;74.00;;;;;;5114693;28;20048;-41
2021/04/02 03:01:08;;;;;;;1.73;0.70;;;14.50;74.00;;;;;;5113846;28;20047;-41
2021/04/02 03:03:34;;;;;;;1.05;0.60;;;14.50;74.00;;;;;;5114460;28;20403;-40
2021/04/02 03:06:01;;;;;;;1.02;0.60;;;14.50;74.00;;;;;;5114051;28;20055;-42
2021/04/02 03:08:30;;;;;;;0.52;0.50;;;14.50;74.00;;;;;;5114114;28;20035;-42
2021/04/02 03:10:58;;;;;;;1.20;0.50;;;14.50;74.70;;;;;;5112774;28;20044;-45
2021/04/02 03:13:24;;;;;;;0.65;0.52;;;14.50;74.00;;;;;;5114134;28;20122;-45
2021/04/02 03:15:55;;;;;;;0.57;0.50;;;14.50;74.00;;;;;;5113887;28;20448;-46
2021/04/02 03:18:22;;;;;;;1.00;0.60;;;14.50;74.00;;;;;;5114258;28;20376;-46
2021/04/02 03:20:50;;;;;;;1.10;0.60;;;14.50;74.00;;;;;;5113555;28;20071;-44
2021/04/02 03:23:17;;;;;;;1.38;0.80;;;14.50;74.00;;;;;;5113754;28;20043;-45
2021/04/02 03:25:47;;;;;;;0.95;0.57;;;14.50;74.00;;;;;;5114146;28;20063;-46
2021/04/02 03:28:16;;;;;;;0.82;0.65;;;14.50;74.00;;;;;;5093811;28;20054;-43
2021/04/02 03:30:41;;;;;;;0.68;0.50;;;14.50;74.00;;;;;;5093749;28;20445;-42
2021/04/02 03:33:12;;;;;;;1.35;0.47;;;14.50;74.00;;;;;;5112925;28;20043;-41
2021/04/02 03:35:39;;;;;;;0.88;0.60;;;14.50;74.00;;;;;;5113692;28;20047;-42
2021/04/02 03:38:08;;;;;;;1.13;0.55;;;14.50;74.00;;;;;;5113399;28;20053;-45
2021/04/02 03:40:35;;;;;;;1.10;0.60;;;14.50;74.00;;;;;;5113485;28;20120;-42
2021/04/02 03:43:04;;;;;;;0.60;0.50;;;14.50;74.00;;;;;;5113639;28;20043;-41
2021/04/02 03:45:31;;;;;;;0.60;0.47;;;14.50;74.00;;;;;;5091659;28;613883;-38
2021/04/02 03:48:00;;;;;;;0.68;0.43;;;14.40;73.90;;;;;;5114590;28;20051;-40
2021/04/02 03:50:30;;;;;;;0.98;0.40;;;14.50;74.00;;;;;;5114531;28;20185;-43
2021/04/02 03:53:02;;;;;;;0.82;0.60;;;14.40;74.00;;;;;;5114528;28;20070;-44
2021/04/02 03:55:29;;;;;;;0.88;0.50;;;14.50;74.00;;;;;;5113447;28;20489;-43
2021/04/02 03:57:56;;;;;;;1.55;0.70;;;14.40;74.00;;;;;;5114075;28;20132;-42
2021/04/02 04:00:33;;;;;;;0.50;0.50;;;14.40;74.00;;;;;;5114318;28;20471;-46
2021/04/02 04:03:02;;;;;;;1.25;0.68;;;14.50;74.00;;;;;;5114370;28;20058;-42
2021/04/02 04:05:29;;;;;;;1.58;0.73;;;14.40;74.00;;;;;;5113552;28;20066;-40
2021/04/02 04:07:56;;;;;;;0.75;0.57;;;14.40;74.00;;;;;;5114121;28;20114;-41
2021/04/02 04:10:23;;;;;;;0.60;0.50;;;14.40;74.00;;;;;;5113772;28;20503;-40
2021/04/02 04:12:53;;;;;;;1.92;0.60;;;14.40;74.00;;;;;;5114295;28;20502;-40
2021/04/02 04:15:22;;;;;;;0.45;0.43;;;14.40;74.00;;;;;;5111982;28;20048;-38
2021/04/02 04:17:49;;;;;;;0.65;0.50;;;14.40;74.70;;;;;;5112754;28;20164;-41
2021/04/02 04:20:17;;;;;;;1.55;0.75;;;14.40;74.00;;;;;;5114227;28;20171;-42
2021/04/02 04:22:45;;;;;;;0.50;0.40;;;14.40;74.00;;;;;;5113700;28;20043;-41
2021/04/02 04:25:12;;;;;;;0.40;0.40;;;14.40;74.00;;;;;;5113738;28;20484;-39
2021/04/02 04:27:41;;;;;;;0.68;0.65;;;14.40;74.00;;;;;;5113924;28;20052;-41
2021/04/02 04:30:13;;;;;;;0.95;0.63;;;14.40;74.00;;;;;;5113750;28;20043;-39
2021/04/02 04:32:40;;;;;;;1.30;0.60;;;14.40;74.00;;;;;;5113654;28;20048;-40
2021/04/02 04:35:15;;;;;;;1.27;0.70;;;14.40;74.00;;;;;;5113578;28;20046;-41
2021/04/02 04:37:43;;;;;;;0.80;0.40;;;14.40;74.00;;;;;;5113199;28;20556;-42
2021/04/02 04:40:12;;;;;;;0.77;0.47;;;14.40;74.00;;;;;;5113448;27;20048;-42
2021/04/02 04:42:40;;;;;;;1.48;0.50;;;14.40;74.00;;;;;;5113496;28;20066;-44
2021/04/02 04:45:08;;;;;;;0.88;0.40;;;14.40;74.00;;;;;;5112997;28;20909;-41
2021/04/02 04:47:35;;;;;;;1.05;0.50;;;14.40;74.00;;;;;;5113614;28;20055;-42
2021/04/02 04:50:02;;;;;;;1.38;0.60;;;14.40;74.00;;;;;;5113348;28;20047;-41
2021/04/02 04:52:30;;;;;;;0.95;0.80;;;14.40;74.10;;;;;;5112997;28;20043;-40
2021/04/02 04:54:58;;;;;;;2.47;0.70;;;14.40;74.00;;;;;;5112268;28;20549;-42
2021/04/02 04:57:28;;;;;;;0.73;0.50;;;14.40;74.00;;;;;;5113119;28;20047;-42
2021/04/02 04:59:57;;;;;;;1.02;0.60;;;14.50;74.10;;;;;;5112543;28;20035;-40
2021/04/02 05:02:23;;;;;;;1.13;0.60;;;14.40;74.00;;;;;;5112914;28;20518;-42
2021/04/02 05:04:50;;;;;;;0.50;0.50;;;14.40;74.00;;;;;;5112532;28;20609;-39
2021/04/02 05:07:18;;;;;;;1.17;0.68;;;14.40;74.10;;;;;;5112478;28;20048;-40
2021/04/02 05:09:46;;;;;;;0.40;0.40;;;14.40;74.10;;;;;;5111804;28;20046;-41
2021/04/02 05:12:14;;;;;;;1.05;0.60;;;14.40;74.10;;;;;;5112582;28;20046;-40
2021/04/02 05:14:41;;;;;;;0.73;0.50;;;14.40;74.00;;;;;;5112449;28;20048;-41
2021/04/02 05:17:09;;;;;;;0.75;0.47;;;14.40;74.00;;;;;;5113347;28;20047;-41
2021/04/02 05:19:36;;;;;;;0.50;0.45;;;14.40;74.00;;;;;;5113361;28;20040;-40
2021/04/02 05:22:02;;;;;;;0.50;0.50;;;14.40;74.00;;;;;;5112823;28;20044;-42
2021/04/02 05:24:28;;;;;;;0.68;0.60;;;14.30;74.00;;;;;;5113279;28;20376;-40
2021/04/02 05:26:54;;;;;;;0.80;0.60;;;14.40;74.00;;;;;;5112590;28;20044;-43
2021/04/02 05:29:21;;;;;;;0.85;0.50;;;14.30;74.00;;;;;;5113068;28;20475;-43
2021/04/02 05:31:47;;;;;;;1.13;0.63;;;14.30;74.00;;;;;;5113062;28;20062;-44
2021/04/02 05:34:13;;;;;;;0.70;0.55;;;14.40;74.00;;;;;;5113135;28;20468;-45
2021/04/02 05:36:38;;;;;;;0.50;0.30;;;14.30;74.00;;;;;;5113098;28;20051;-44
2021/04/02 05:39:05;;;;;;;0.90;0.60;;;14.30;74.00;;;;;;5113031;28;20043;-45
2021/04/02 05:41:58;;;;;;;0.43;0.43;;;14.30;74.00;;;;;;5112255;28;20048;-40
2021/04/02 05:44:30;;;;;;;1.23;0.68;;;14.30;74.00;;;;;;5108582;28;20487;-40
2021/04/02 05:47:00;;;;;;;2.22;0.70;;;14.30;74.00;;;;;;5110908;28;20055;-43
2021/04/02 05:49:27;;;;;;;0.65;0.60;;;14.30;74.00;;;;;;5113124;28;20050;-43
2021/04/02 05:51:55;;;;;;;2.50;0.50;;;14.30;74.00;;;;;;5112945;28;20048;-43
2021/04/02 05:54:38;;;;;;;2.28;0.75;;;14.30;74.00;;;;;;5111021;28;20056;-42
2021/04/02 05:57:04;;;;;;;1.25;0.50;;;14.30;74.00;;;;;;5112436;28;20044;-40
2021/04/02 05:59:31;;;;;;;1.67;0.60;;;14.30;74.00;;;;;;5113008;28;20048;-45
2021/04/02 06:01:57;;;;;;;0.52;0.50;;;14.40;74.00;;;;;;5112599;28;20039;-40
2021/04/02 06:04:23;;;;;;;1.17;0.75;;;14.40;74.00;;;;;;5112842;28;20083;-40
2021/04/02 06:06:48;;;;;;;0.90;0.60;;;14.30;74.00;;;;;;5112473;28;20521;-44
2021/04/02 06:09:14;;;;;;;1.27;0.60;;;14.30;74.00;;;;;;5112494;28;20134;-43
2021/04/02 06:11:40;;;;;;;0.60;0.60;;;14.30;74.00;;;;;;5112422;28;20138;-41
2021/04/02 06:14:08;;;;;;;0.93;0.80;;;14.30;74.00;;;;;;5112522;28;20081;-43
2021/04/02 06:16:34;;;;;;;1.17;0.60;;;14.30;74.00;;;;;;5112743;28;20411;-41
2021/04/02 06:19:10;;;;;;;1.23;0.60;;;14.40;74.00;;;;;;5112705;28;20051;-40
2021/04/02 06:21:47;;;;;;;1.33;0.73;;;14.30;74.60;;;;;;5116356;28;20043;-40
2021/04/02 06:24:16;;;;;;;1.75;0.55;;;14.30;74.00;;;;;;5115938;28;20047;-48
2021/04/02 06:26:58;;;;;;;0.63;0.55;;;14.30;74.00;;;;;;5116548;28;20040;-43
2021/04/02 06:29:27;;;;;;;1.15;0.43;;;14.40;74.00;;;;;;5116360;28;20055;-41
2021/04/02 06:31:52;;;;;;;0.95;0.80;;;14.30;73.90;;;;;;5116285;28;20381;-42
2021/04/02 06:34:20;;;;;;;0.85;0.60;;;14.30;73.90;;;;;;5115777;28;20061;-39
2021/04/02 06:36:49;;;;;;;0.82;0.70;;;14.30;74.60;;;;;;5116130;28;20131;-45
2021/04/02 06:39:15;;;;;;;1.35;0.52;;;14.30;73.90;;;;;;5116242;27;20051;-43
2021/04/02 06:41:42;;;;;;;0.50;0.50;;;14.40;74.00;;;;;;5116215;28;20051;-45
2021/04/02 06:44:09;;;;;;;1.08;0.55;;;14.30;73.90;;;;;;5115316;28;20052;-39
2021/04/02 06:46:37;;;;;;;1.30;0.65;;;14.30;73.90;;;;;;5115556;28;20054;-40
2021/04/02 06:49:12;;;;;;;0.70;0.65;;;14.20;73.90;;;;;;5116304;28;20487;-38
2021/04/02 06:51:40;;;;;;;0.40;0.40;;;14.30;73.90;;;;;;5115763;28;20086;-42
2021/04/02 06:54:07;;;;;;;1.77;0.70;;;14.30;73.90;;;;;;5115890;28;20048;-42
2021/04/02 06:56:34;;;;;;;0.93;0.65;;;14.30;73.90;;;;;;5115782;28;20063;-42
2021/04/02 06:59:00;;;;;;;1.42;0.70;;;14.30;74.00;;;;;;5115379;28;20108;-39
2021/04/02 07:01:32;;;;;;;0.75;0.50;;;14.30;73.90;;;;;;5114156;28;20055;-48
2021/04/02 07:03:59;;;;;;;0.98;0.70;;;14.30;73.90;;;;;;5115795;27;20055;-44
2021/04/02 07:06:26;;;;;;;2.13;0.77;;;14.30;73.90;;;;;;5116528;28;20050;-40
2021/04/02 07:08:53;;;;;;;1.50;0.88;;;14.30;73.90;;;;;;5115753;28;20505;-39
2021/04/02 07:11:21;;;;;;;1.08;0.80;;;14.30;73.90;;;;;;5115817;28;20089;-39
2021/04/02 07:13:55;;;;;;;1.92;0.70;;;14.30;74.60;;;;;;5115193;28;20173;-38
2021/04/02 07:16:22;;;;;;;0.90;0.45;;;14.30;73.90;;;;;;5114878;28;20048;-40
2021/04/02 07:18:49;;;;;;;2.22;1.00;;;14.30;74.50;;;;;;5115081;28;20491;-39
2021/04/02 07:21:17;;;;;;;1.05;0.60;;;14.30;73.90;;;;;;5115599;28;20449;-39
2021/04/02 07:23:43;;;;;;;3.05;1.10;;;14.30;73.90;;;;;;5115543;28;20127;-39
2021/04/02 07:26:10;;;;;;;0.95;0.82;;;14.30;73.90;;;;;;5115222;28;20122;-37
2021/04/02 07:28:45;;;;;;;2.35;0.75;;;14.30;73.90;;;;;;5115475;28;20044;-36
2021/04/02 07:31:13;;;;;;;0.73;0.60;;;14.30;73.90;;;;;;5112931;28;20048;-38
2021/04/02 07:33:42;;;;;;;1.88;0.70;;;14.30;73.90;;;;;;5115238;28;20043;-38
2021/04/02 07:36:12;;;;;;;2.88;0.88;;;14.30;73.90;;;;;;5115019;28;20101;-39
2021/04/02 07:38:39;;;;;;;1.45;1.10;;;14.30;73.90;;;;;;5115023;28;20469;-36
2021/04/02 07:41:17;;;;;;;0.82;0.73;;;14.30;73.90;;;;;;5113356;28;20056;-37
2021/04/02 07:43:49;;;;;;;1.30;0.70;;;14.30;73.90;;;;;;5114022;28;20046;-38
2021/04/02 07:46:18;;;;;;;0.47;0.47;;;14.30;73.90;;;;;;5093952;28;20117;-37
2021/04/02 07:49:08;;;;;;;0.90;0.80;;;14.30;73.90;;;;;;5102531;28;20040;-37
2021/04/02 07:51:45;;;;;;;0.55;0.55;;;14.30;73.90;;;;;;5114301;28;20131;-37
2021/04/02 07:54:17;;;;;;;1.38;1.00;;;14.20;73.80;;;;;;5114285;28;20118;-40
2021/04/02 07:56:46;;;;;;;0.75;0.60;;;14.30;73.90;;;;;;5114615;28;20043;-36
2021/04/02 07:59:12;;;;;;;1.48;0.50;;;14.20;73.80;;;;;;5113413;28;20130;-38
2021/04/02 08:01:37;;;;;;;1.13;0.77;;;14.30;73.90;;;;;;5113989;28;20069;-41
2021/04/02 08:04:04;;;;;;;1.35;0.70;;;14.30;73.90;;;;;;5114325;28;20047;-41
2021/04/02 08:06:32;;;;;;;1.13;0.68;;;14.20;73.80;;;;;;5114026;28;20139;-39
2021/04/02 08:08:59;;;;;;;1.30;0.73;;;14.30;73.80;;;;;;5114082;28;20075;-41
2021/04/02 08:11:43;;;;;;;0.93;0.60;;;14.20;73.80;;;;;;5114459;28;20050;-39
2021/04/02 08:14:11;;;;;;;1.02;0.85;;;14.30;73.90;;;;;;5114276;28;20555;-41
2021/04/02 08:16:47;;;;;;;2.33;0.90;;;14.20;73.80;;;;;;5113946;28;20048;-41
2021/04/02 08:19:18;;;;;;;1.52;0.70;;;14.30;73.90;;;;;;5114361;28;20047;-41
2021/04/02 08:21:50;;;;;;;2.38;0.80;;;14.30;73.90;;;;;;5114138;28;20511;-40
2021/04/02 08:24:19;;;;;;;0.77;0.77;;;14.30;73.90;;;;;;5114084;28;20043;-40
2021/04/02 08:26:45;;;;;;;0.63;0.52;;;14.20;73.80;;;;;;5114086;28;20043;-41
2021/04/02 08:29:13;;;;;;;1.55;0.77;;;14.20;73.80;;;;;;5113718;28;20054;-39
2021/04/02 08:31:42;;;;;;;3.13;1.08;;;14.30;73.90;;;;;;5113581;28;20052;-40
2021/04/02 08:34:08;;;;;;;1.23;0.43;;;14.20;73.80;;;;;;5113689;28;20054;-40
2021/04/02 08:36:34;;;;;;;1.52;0.80;;;14.30;73.90;;;;;;5113681;28;20417;-41
2021/04/02 08:39:00;;;;;;;2.10;1.15;;;14.30;73.90;;;;;;5113358;28;20047;-41
2021/04/02 08:41:31;;;;;;;9.40;1.80;;;14.30;73.80;;;;;;5110878;28;20040;-40
2021/04/02 08:43:58;;;;;;;3.92;1.48;;;14.20;72.20;;;;;;5112786;28;20076;-40
2021/04/02 08:46:37;;;;;;;5.32;1.77;;;14.10;72.10;;;;;;5112946;28;20406;-41
2021/04/02 08:49:04;;;;;;;8.40;1.70;;;14.00;71.90;;;;;;5113207;28;20159;-40
2021/04/02 08:51:30;;;;;;;6.35;1.65;;;14.00;71.90;;;;;;5113346;28;20050;-41
2021/04/02 08:53:55;;;;;;;4.85;1.35;;;14.00;71.90;;;;;;5113367;28;20047;-42
2021/04/02 08:56:23;;;;;;;4.25;1.52;;;14.10;72.00;;;;;;5113267;28;20046;-41
2021/04/02 08:58:49;;;;;;;3.72;1.58;;;13.90;71.90;;;;;;5113149;28;20051;-40
2021/04/02 09:01:17;;;;;;;4.97;1.85;;;14.10;72.10;;;;;;5092706;28;20507;-38
2021/04/02 09:03:45;;;;;;;4.97;1.40;;;14.10;72.10;;;;;;5088234;28;20052;-39
2021/04/02 09:06:11;;;;;;;4.78;1.35;;;14.10;72.20;;;;;;5102352;28;20048;-38
2021/04/02 09:08:37;;;;;;;3.50;1.10;;;14.00;72.20;;;;;;5108310;28;20055;-38
2021/04/02 09:11:14;;;;;;;4.97;1.70;;;14.10;72.30;;;;;;5107818;28;20552;-39
2021/04/02 09:13:44;;;;;;;6.88;1.30;;;14.10;72.40;;;;;;5108145;28;20083;-39
2021/04/02 09:16:15;;;;;;;5.57;1.75;;;14.10;72.40;;;;;;5105245;28;20051;-37
2021/04/02 09:18:52;;;;;;;4.03;1.52;;;14.10;72.50;;;;;;5107584;28;20051;-40
2021/04/02 09:21:19;;;;;;;3.35;1.60;;;14.10;72.50;;;;;;5106350;28;20487;-38
2021/04/02 09:23:52;;;;;;;2.50;1.10;;;14.10;72.60;;;;;;5108018;28;20044;-39
2021/04/02 09:26:19;;;;;;;4.60;1.58;;;14.10;72.60;;;;;;5107450;28;20128;-40
2021/04/02 09:28:45;;;;;;;1.65;1.25;;;14.10;72.60;;;;;;5107411;28;20047;-40
2021/04/02 09:31:20;;;;;;;3.50;1.40;;;14.10;72.70;;;;;;5107526;28;20052;-40
2021/04/02 09:33:50;;;;;;;3.25;1.35;;;14.10;72.70;;;;;;5104794;28;20043;-38
2021/04/02 09:36:16;;;;;;;3.67;1.38;;;14.10;72.80;;;;;;5107201;28;20476;-39
2021/04/02 09:38:43;;;;;;;3.63;1.20;;;14.20;72.90;;;;;;5105501;28;20123;-38
2021/04/02 09:41:13;;;;;;;1.15;0.90;;;14.10;72.80;;;;;;5107050;28;20036;-40
2021/04/02 09:43:51;;;;;;;3.58;1.13;;;14.20;73.60;;;;;;5107836;28;20062;-39
2021/04/02 09:46:31;;;;;;;3.95;1.40;;;14.10;72.90;;;;;;5105737;28;20123;-39
2021/04/02 09:49:13;;;;;;;4.22;1.13;;;14.20;72.90;;;;;;5105853;28;20040;-42
2021/04/02 09:51:59;;;;;;;2.35;1.48;;;14.10;72.90;;;;;;5106403;28;20048;-40
2021/04/02 09:54:28;;;;;;;4.00;1.65;;;14.20;73.00;;;;;;5107312;28;20044;-37
2021/04/02 09:56:55;;;;;;;4.50;1.30;;;14.10;73.00;;;;;;5111426;28;20584;-38
2021/04/02 09:59:21;;;;;;;2.38;1.10;;;14.20;73.00;;;;;;5111133;28;20138;-40
2021/04/02 10:01:47;;;;;;;2.72;1.05;;;14.20;73.00;;;;;;5111494;28;20122;-39
2021/04/02 10:04:14;;;;;;;2.97;1.08;;;14.20;73.10;;;;;;5110693;28;20055;-39
2021/04/02 10:06:41;;;;;;;2.92;1.50;;;14.20;73.10;;;;;;5111185;28;20047;-40
2021/04/02 10:09:07;;;;;;;4.22;1.30;;;14.20;73.10;;;;;;5108203;28;20103;-39
2021/04/02 10:11:36;;;;;;;2.80;1.30;;;14.20;73.10;;;;;;5111555;28;20151;-39
2021/04/02 10:14:03;;;;;;;4.22;1.33;;;14.20;73.10;;;;;;5111170;27;20073;-39
2021/04/02 10:16:29;;;;;;;2.72;1.10;;;14.20;73.10;;;;;;5110782;28;20134;-38
2021/04/02 10:18:55;;;;;;;3.85;1.30;;;14.20;73.10;;;;;;5111294;28;20135;-38
2021/04/02 10:21:23;;;;;;;2.88;1.20;;;14.20;73.10;;;;;;5110367;28;20066;-41
2021/04/02 10:23:50;;;;;;;3.45;1.38;;;14.20;73.20;;;;;;5108835;28;20128;-41
2021/04/02 10:26:17;;;;;;;2.63;1.02;;;14.20;73.10;;;;;;5110407;28;20039;-40
2021/04/02 10:28:42;;;;;;;1.95;0.90;;;14.20;73.20;;;;;;5110820;28;20731;-39
2021/04/02 10:31:09;;;;;;;6.43;2.28;;;14.20;73.20;;;;;;5110313;28;20055;-39
2021/04/02 10:33:35;;;;;;;6.05;2.10;;;14.00;71.50;;;;;;5110587;28;20039;-40
2021/04/02 10:36:01;;;;;;;3.78;1.80;;;13.90;70.60;;;;;;5110145;28;20047;-39
2021/04/02 10:38:27;;;;;;;9.77;1.85;;;13.70;70.70;;;;;;5109712;28;20046;-39
2021/04/02 10:40:53;;;;;;;4.55;2.00;;;13.70;70.70;;;;;;5110701;28;20086;-39
2021/04/02 10:43:19;;;;;;;6.90;1.73;;;13.70;70.70;;;;;;5110649;28;20047;-39
2021/04/02 10:45:45;;;;;;;3.08;1.55;;;13.70;70.80;;;;;;5114045;28;20096;-38
2021/04/02 10:48:11;;;;;;;5.30;1.40;;;13.70;70.80;;;;;;5113760;28;20051;-39
2021/04/02 10:50:39;;;;;;;8.15;1.90;;;13.70;70.90;;;;;;5111298;28;20084;-41
2021/04/02 10:53:05;;;;;;;5.30;1.80;;;13.70;71.00;;;;;;5111729;28;20055;-40
2021/04/02 10:55:31;;;;;;;7.15;1.88;;;13.70;71.10;;;;;;5113654;28;20040;-42
2021/04/02 10:57:57;;;;;;;4.15;1.83;;;13.70;71.20;;;;;;5113762;28;20138;-44
2021/04/02 11:00:24;;;;;;;3.10;1.45;;;13.80;71.40;;;;;;5114595;28;20131;-40
2021/04/02 11:02:51;;;;;;;6.88;1.60;;;13.80;71.50;;;;;;5114955;28;20044;-42
2021/04/02 11:05:17;;;;;;;4.85;1.40;;;13.80;71.60;;;;;;5114449;27;20119;-42
2021/04/02 11:07:42;;;;;;;6.53;1.70;;;13.80;71.60;;;;;;5114267;28;20046;-45
2021/04/02 11:10:10;;;;;;;5.72;1.40;;;13.70;71.60;;;;;;5115188;28;20118;-38
2021/04/02 11:12:36;;;;;;;4.15;1.50;;;13.80;71.70;;;;;;5114997;28;20393;-41
2021/04/02 11:15:04;;;;;;;3.97;1.60;;;13.80;71.80;;;;;;5113955;28;20402;-37
2021/04/02 11:17:30;;;;;;;3.47;1.50;;;13.90;71.90;;;;;;5114755;28;20043;-42
2021/04/02 11:19:57;;;;;;;2.95;1.52;;;13.90;71.90;;;;;;5115042;28;20460;-41
2021/04/02 11:22:24;;;;;;;3.28;1.60;;;13.90;72.00;;;;;;5113934;28;20100;-44
2021/04/02 11:24:51;;;;;;;4.80;1.70;;;13.90;72.00;;;;;;5114814;28;20047;-42
2021/04/02 11:27:18;;;;;;;2.58;1.42;;;13.90;72.00;;;;;;5114514;28;20035;-36
2021/04/02 11:29:44;;;;;;;3.90;1.40;;;13.90;72.70;;;;;;5113846;28;20453;-40
2021/04/02 11:32:11;;;;;;;4.68;1.40;;;13.90;72.00;;;;;;5112008;28;20096;-43
2021/04/02 11:34:38;;;;;;;2.60;1.10;;;14.00;72.10;;;;;;5114331;28;20058;-41
2021/04/02 11:37:05;;;;;;;3.90;1.25;;;13.90;72.10;;;;;;5112780;28;20089;-42
2021/04/02 11:39:32;;;;;;;1.67;1.20;;;13.90;72.10;;;;;;5111131;28;20674;-43
2021/04/02 11:41:58;;;;;;;2.75;1.58;;;13.90;72.20;;;;;;5113926;28;20471;-44
2021/04/02 11:44:25;;;;;;;2.08;1.20;;;13.90;72.20;;;;;;5113256;28;20040;-44
2021/04/02 11:46:51;;;;;;;3.63;1.60;;;14.00;72.20;;;;;;5112660;28;20082;-40
2021/04/02 11:49:17;;;;;;;3.58;1.60;;;14.00;72.30;;;;;;5114034;28;20426;-44
2021/04/02 11:51:43;;;;;;;2.80;1.30;;;14.00;72.30;;;;;;5113170;28;20126;-41
2021/04/02 11:54:09;;;;;;;1.85;1.02;;;14.00;72.30;;;;;;5112981;28;20043;-39
2021/04/02 11:56:35;;;;;;;2.83;1.10;;;14.00;72.30;;;;;;5113965;28;20043;-46
2021/04/02 11:59:01;;;;;;;2.63;1.00;;;14.00;73.00;;;;;;5107912;28;20142;-41
2021/04/02 12:01:26;;;;;;;3.20;1.30;;;14.00;72.30;;;;;;5112237;28;20065;-42
2021/04/02 12:03:52;;;;;;;3.60;1.10;;;14.00;72.30;;;;;;5112898;28;20039;-43
2021/04/02 12:06:18;;;;;;;3.05;1.00;;;13.90;72.30;;;;;;5112005;28;20407;-45
2021/04/02 12:08:44;;;;;;;1.65;0.80;;;14.00;72.40;;;;;;5112164;28;20043;-46
2021/04/02 12:11:09;;;;;;;3.08;0.90;;;14.00;72.40;;;;;;5112518;28;20205;-40
2021/04/02 12:13:35;;;;;;;1.15;0.80;;;14.00;72.40;;;;;;5112654;28;20548;-42
2021/04/02 12:16:02;;;;;;;2.05;0.98;;;14.00;72.40;;;;;;5112487;28;20471;-41
2021/04/02 12:18:28;;;;;;;3.20;1.45;;;14.00;72.40;;;;;;5112121;28;20047;-40
2021/04/02 12:20:54;;;;;;;3.75;0.93;;;14.00;72.50;;;;;;5112715;28;20134;-41
2021/04/02 12:23:20;;;;;;;2.63;1.70;;;14.00;72.50;;;;;;5112811;28;20181;-42
2021/04/02 12:25:46;;;;;;;3.13;1.27;;;14.00;72.50;;;;;;5112786;28;20381;-43
2021/04/02 12:28:12;;;;;;;1.80;0.90;;;14.00;72.50;;;;;;5112613;28;20043;-46
2021/04/02 12:30:37;;;;;;;3.33;1.30;;;14.00;72.50;;;;;;5112685;28;20524;-45
2021/04/02 12:33:04;;;;;;;2.92;1.20;;;14.00;72.50;;;;;;5112807;28;20046;-38
2021/04/02 12:35:30;;;;;;;2.08;0.98;;;14.10;72.50;;;;;;5113024;28;20039;-43
2021/04/02 12:37:56;;;;;;;1.27;1.17;;;14.00;72.50;;;;;;5112608;28;20035;-43
2021/04/02 12:40:23;;;;;;;1.88;1.00;;;14.10;72.60;;;;;;5112618;28;20414;-41
2021/04/02 12:42:49;;;;;;;2.88;1.17;;;14.00;72.50;;;;;;5111167;28;20054;-39
2021/04/02 12:45:16;;;;;;;2.25;1.00;;;14.10;72.60;;;;;;5112405;28;20050;-44
2021/04/02 12:47:43;;;;;;;1.23;0.70;;;14.10;72.60;;;;;;5112350;28;20071;-43
2021/04/02 12:50:14;;;;;;;1.98;0.80;;;14.10;72.60;;;;;;5112683;28;20039;-45
2021/04/02 12:52:40;;;;;;;1.33;0.82;;;14.10;72.60;;;;;;5110324;28;20127;-38
2021/04/02 12:55:12;;;;;;;1.52;0.90;;;14.10;72.60;;;;;;5112315;28;20119;-39